METAR Data
IDs: Format: Raw Decoded Include TAF

Data at: 0737 UTC 18 Nov 2018

PAMR 180653Z 01004KT 10SM OVC080 02/M01 A2957 RMK AO2 SLP015 T00171006
PAMR 180553Z 01003KT 10SM OVC080 02/M01 A2958 RMK AO2 SLP017 60001 T00171006 10022 20011 51002
PAMR 180453Z 00000KT 10SM BKN065 OVC080 01/M01 A2957 RMK AO2 UPB0354E21RAB21E49 SLP015 P0000 T00111006
PAMR 180353Z 00000KT 10SM OVC080 02/M01 A2958 RMK AO2 RAE23UPB0258E52 SLP017 P0000 T00171006
PAMR 180253Z 00000KT 10SM -RA OVC075 02/M01 A2957 RMK AO2 RAE23B53UPB23E53 SLP015 P0001 60001 T00171011 56005
PAMR 180153Z COR 00000KT 10SM OVC065 02/M02 A2957 RMK AO2 RAB50UPB51E52 SLP015 P0000 T00171017
PAMR 180053Z 01004KT 10SM OVC070 02/M02 A2957 RMK AO2 RAB2358E12UPB2359E02 SLP015 P0000 T00171022
PAMR 172353Z 36003KT 10SM OVC070 02/M03 A2958 RMK AO2 SLP019 T00221028 10022 21006 57006
PAMR 172253Z 02003KT 10SM OVC065 02/M02 A2959 RMK AO2 SLP021 T00171022
PAMR 172153Z 02004KT 10SM OVC050 01/M02 A2960 RMK AO2 SLP024 T00111022
PAMR 172053Z 05003KT 10SM OVC050 01/M02 A2960 RMK AO2 SLP025 T00061022 55001
PAMR 171953Z 04004KT 10SM OVC055 00/M03 A2959 RMK AO2 SLP022 T00001028
PAMR 171853Z 00000KT 10SM OVC055 M01/M03 A2961 RMK AO2 SLP028 T10061028
PAMR 171753Z 03004KT 10SM OVC055 00/M03 A2960 RMK AO2 UPB06E16 SLP026 P0000 60000 T00001028 10006 21011 58005
PAMR 171653Z 00000KT 10SM OVC060 00/M03 A2962 RMK AO2 SLP032 T00001028
PAMR 171553Z 00000KT 10SM BKN075 OVC095 00/M03 A2962 RMK AO2 RAE21 SLP030 P0000 T00001033
PAMR 171453Z 36004KT 10SM -RA BKN060 OVC095 M01/M03 A2962 RMK AO2 RAB12 SLP031 P0000 60000 T10061028 58028
PAMR 171353Z 04003KT 10SM BKN050 OVC070 M01/M03 A2965 RMK AO2 SLP043 T10061028
PAMR 171253Z 00000KT 10SM BKN085 OVC100 M01/M03 A2967 RMK AO2 SLP050 T10111028
PAMR 171153Z 07003KT 10SM BKN075 OVC085 M01/M03 A2970 RMK AO2 SLP059 T10111033 11006 21028 58018
PAMR 171053Z 11003KT 10SM BKN070 OVC090 M02/M03 A2972 RMK AO2 SLP066 T10171033
PAMR 170953Z 06003KT 10SM BKN120 OVC140 M01/M03 A2974 RMK AO2 SLP072 T10111033
PAMR 170853Z 00000KT 10SM FEW090 BKN130 M03/M04 A2975 RMK AO2 SLP077 T10281044 410061067 56026
PAMR 170753Z COR 00000KT 10SM BKN120 M01/M04 A2977 RMK AO2 SLP082 T10111039
PAMR 170653Z AUTO 03005KT 10SM OVC100 M01/M03 A2980 RMK AO2 SLP094 T10061033 TSNO
PAMR 170553Z 04003KT 10SM OVC085 M01/M03 A2983 RMK AO2 SLP103 T10061033 11006 21022 56031
PAMR 170453Z 00000KT 10SM OVC090 M01/M03 A2986 RMK AO2 SLP114 T10061033
PAMR 170353Z 01004KT 10SM SCT100 BKN120 M02/M04 A2987 RMK AO2 SLP118 T10171039
PAMR 170253Z AUTO 00000KT 10SM OVC100 M02/M04 A2992 RMK AO2 SLP135 T10221044 56029 TSNO
PAMR 170153Z AUTO 36005KT 10SM OVC075 M01/M04 A2994 RMK AO2 SLP141 T10111044 TSNO
PAMR 170053Z 35004KT 10SM OVC060 M02/M04 A2998 RMK AO2 SLP153 T10171044
PAMR 162353Z 00000KT 10SM OVC070 M02/M05 A3001 RMK AO2 SNE09 SLP165 P0000 60000 T10171050 11017 21028 58021
PAMR 162253Z 00000KT 9SM -SN FEW070 OVC085 M02/M05 A3003 RMK AO2 SLP173 P0000 T10221050
PAMR 162153Z 35006KT 9SM -SN OVC080 M02/M06 A3006 RMK AO2 SLP182 P0000 T10221056
PAMR 162053Z 35004KT 9SM -SN OVC095 M02/M06 A3007 RMK AO2 SLP187 P0000 60000 T10221056 58013
PAMR 161953Z 36003KT 9SM -SN OVC090 M02/M06 A3009 RMK AO2 SLP193 P0000 T10221056